Time;durP1;ratioP1;P1;durP2;ratioP2;P2;SDS_P1;SDS_P2;PMS_P1;PMS_P2;Temp;Humidity;BMP_temperature;BMP_pressure;BME280_temperature;BME280_humidity;BME280_pressure;Samples;Min_cycle;Max_cycle;Signal;HPM_P1;HPM_P2
2023/07/27 00:00:29;;;;;;;0.00;0.00;;;;;;;15.56;60.04;99446.72;4307249;33;23633;-92
2023/07/27 00:02:54;;;;;;;0.00;0.00;;;;;;;15.54;60.03;99440.72;4319875;33;20589;-91
2023/07/27 00:05:20;;;;;;;0.00;0.00;;;;;;;15.54;60.03;99444.19;4294985;33;20186;-91
2023/07/27 00:07:45;;;;;;;0.00;0.00;;;;;;;15.49;60.04;99448.03;4307315;33;20442;-92
2023/07/27 00:10:10;;;;;;;0.15;0.15;;;;;;;15.52;60.03;99450.47;4292353;33;26785;-92
2023/07/27 00:12:36;;;;;;;0.10;0.10;;;;;;;15.47;60.03;99455.97;4307350;33;20125;-91
2023/07/27 00:15:01;;;;;;;0.00;0.00;;;;;;;15.23;60.02;99457.34;4307486;33;20095;-92
2023/07/27 00:17:27;;;;;;;0.00;0.00;;;;;;;15.26;60.02;99451.94;4315026;33;20143;-92
2023/07/27 00:19:52;;;;;;;0.00;0.00;;;;;;;15.25;60.02;99461.59;4307288;33;20159;-91
2023/07/27 00:22:18;;;;;;;0.00;0.00;;;;;;;15.26;60.02;99465.91;4306933;33;20144;-92
2023/07/27 00:24:43;;;;;;;1.55;0.45;;;;;;;15.27;60.02;99461.50;4306929;33;20253;-90
2023/07/27 00:27:08;;;;;;;0.00;0.00;;;;;;;15.20;60.01;99458.38;4307424;33;20100;-91
2023/07/27 00:29:34;;;;;;;0.00;0.00;;;;;;;15.20;60.02;99462.78;4297373;33;20080;-92
2023/07/27 00:31:59;;;;;;;0.00;0.00;;;;;;;15.00;60.00;99467.34;4307512;33;20205;-91
2023/07/27 00:34:25;;;;;;;0.57;0.52;;;;;;;15.04;60.01;99468.84;4295135;33;20166;-92
2023/07/27 00:36:50;;;;;;;0.00;0.00;;;;;;;15.12;60.01;99457.09;4294955;33;20147;-91
2023/07/27 00:39:16;;;;;;;0.47;0.10;;;;;;;15.11;60.02;99453.63;4306809;33;20143;-92
2023/07/27 00:41:41;;;;;;;9.10;0.37;;;;;;;14.91;60.00;99464.38;4306929;33;20802;-91
2023/07/27 00:44:07;;;;;;;0.00;0.00;;;;;;;14.97;60.01;99467.50;4295033;33;20426;-91
2023/07/27 00:46:33;;;;;;;0.00;0.00;;;;;;;14.84;59.99;99466.47;4306876;33;20099;-90
2023/07/27 00:48:59;;;;;;;0.13;0.13;;;;;;;15.01;60.00;99463.78;4306135;33;20440;-91
2023/07/27 00:51:24;;;;;;;0.88;0.32;;;;;;;15.00;60.00;99464.72;4304710;33;20167;-91
2023/07/27 00:53:50;;;;;;;0.00;0.00;;;;;;;14.99;60.00;99462.19;4295081;33;20152;-91
2023/07/27 00:56:15;;;;;;;0.00;0.00;;;;;;;14.91;60.00;99472.25;4307149;33;20437;-91
2023/07/27 00:58:41;;;;;;;0.00;0.00;;;;;;;14.92;60.00;99464.28;4306410;33;20135;-91
2023/07/27 01:01:06;;;;;;;0.65;0.55;;;;;;;14.84;60.00;99470.84;4306647;33;20183;-91
2023/07/27 01:03:32;;;;;;;0.00;0.00;;;;;;;14.86;59.99;99463.75;4306619;33;20099;-92
2023/07/27 01:05:57;;;;;;;0.00;0.00;;;;;;;14.86;59.99;99466.38;4316440;33;20522;-91
2023/07/27 01:08:22;;;;;;;0.00;0.00;;;;;;;14.99;60.00;99464.78;4294206;33;23324;-91
2023/07/27 01:11:02;;;;;;;0.00;0.00;;;;;;;14.92;60.00;99463.44;4307143;33;20212;-91
2023/07/27 01:13:42;;;;;;;0.00;0.00;;;;;;;14.99;60.01;99459.56;4306963;33;20119;-89
2023/07/27 01:16:18;;;;;;;0.00;0.00;;;;;;;14.98;60.01;99463.94;4306556;33;20115;-91
2023/07/27 01:19:03;;;;;;;0.00;0.00;;;;;;;14.93;59.99;99463.38;4306742;33;20092;-91
2023/07/27 01:21:34;;;;;;;0.00;0.00;;;;;;;14.98;60.00;99470.97;4307775;33;20126;-91
2023/07/27 01:24:25;;;;;;;0.00;0.00;;;;;;;14.79;60.00;99465.88;4294840;33;20123;-92
2023/07/27 01:27:20;;;;;;;2.75;0.85;;;;;;;14.79;60.00;99467.66;4306907;33;20117;-91
2023/07/27 01:30:08;;;;;;;0.00;0.00;;;;;;;14.79;60.00;99473.72;4306708;33;20781;-93
2023/07/27 01:32:34;;;;;;;0.00;0.00;;;;;;;14.69;59.98;99477.78;4295608;33;20112;-91
2023/07/27 01:35:00;;;;;;;0.00;0.00;;;;;;;14.78;59.99;99476.44;4292101;33;20124;-91
2023/07/27 01:37:26;;;;;;;0.20;0.20;;;;;;;14.73;60.00;99474.06;4289962;33;20115;-90
2023/07/27 01:39:51;;;;;;;0.00;0.00;;;;;;;14.78;59.99;99479.06;4318816;33;20535;-91
2023/07/27 01:42:17;;;;;;;0.00;0.00;;;;;;;14.74;59.99;99481.00;4294513;33;20108;-92
2023/07/27 01:44:42;;;;;;;0.00;0.00;;;;;;;14.72;59.99;99481.09;4294769;33;20936;-92
2023/07/27 01:47:08;;;;;;;0.00;0.00;;;;;;;14.67;59.99;99471.78;4294591;33;20167;-92
2023/07/27 01:49:34;;;;;;;0.00;0.00;;;;;;;14.53;59.98;99469.88;4303786;33;20126;-92
2023/07/27 01:52:00;;;;;;;0.00;0.00;;;;;;;14.58;59.98;99459.16;4301512;33;20126;-91
2023/07/27 01:54:26;;;;;;;0.00;0.00;;;;;;;14.67;59.99;99464.78;4306011;33;20128;-92
2023/07/27 01:56:52;;;;;;;0.45;0.45;;;;;;;14.78;60.00;99469.41;4306077;33;20546;-92
2023/07/27 01:59:17;;;;;;;0.00;0.00;;;;;;;14.58;59.98;99470.47;4294075;33;20170;-90
2023/07/27 02:01:43;;;;;;;0.00;0.00;;;;;;;14.62;59.98;99464.12;4307507;33;20179;-92
2023/07/27 02:04:08;;;;;;;0.10;0.10;;;;;;;14.65;59.99;99458.75;4306503;33;20140;-91
2023/07/27 02:06:34;;;;;;;0.00;0.00;;;;;;;14.66;59.99;99452.56;4291419;33;20115;-91
2023/07/27 02:08:59;;;;;;;0.00;0.00;;;;;;;14.71;59.99;99453.19;4308297;33;20139;-90
2023/07/27 02:11:25;;;;;;;0.00;0.00;;;;;;;14.60;59.98;99452.91;4295818;33;28500;-91
2023/07/27 02:14:11;;;;;;;0.00;0.00;;;;;;;14.46;59.98;99465.06;4305796;33;20155;-90
2023/07/27 02:16:53;;;;;;;0.00;0.00;;;;;;;14.35;59.97;99457.72;4317080;33;20170;-91
2023/07/27 02:19:18;;;;;;;0.10;0.10;;;;;;;14.30;59.96;99462.34;4296826;33;20068;-91
2023/07/27 02:21:43;;;;;;;0.00;0.00;;;;;;;14.33;59.96;99463.03;4308921;33;20690;-91
2023/07/27 02:24:09;;;;;;;0.00;0.00;;;;;;;14.32;59.97;99463.09;4308498;33;20130;-92
2023/07/27 02:26:35;;;;;;;0.00;0.00;;;;;;;14.16;59.96;99455.19;4308548;33;20126;-91
2023/07/27 02:29:00;;;;;;;0.05;0.05;;;;;;;14.31;59.97;99458.78;4308404;33;20110;-91
2023/07/27 02:31:25;;;;;;;0.10;0.10;;;;;;;14.33;59.96;99454.31;4308395;33;20155;-92
2023/07/27 02:33:51;;;;;;;2.20;0.43;;;;;;;14.25;59.96;99457.34;4308264;33;20496;-91
2023/07/27 02:36:16;;;;;;;0.20;0.20;;;;;;;14.23;59.96;99460.97;4293653;33;20160;-90
2023/07/27 02:38:42;;;;;;;0.00;0.00;;;;;;;14.34;59.97;99469.09;4302006;33;20109;-90
2023/07/27 02:41:09;;;;;;;0.00;0.00;;;;;;;14.34;59.97;99463.88;4308040;33;20123;-90
2023/07/27 02:43:35;;;;;;;0.00;0.00;;;;;;;14.36;59.98;99467.25;4305700;33;20545;-91
2023/07/27 02:46:00;;;;;;;0.00;0.00;;;;;;;14.26;59.97;99469.50;4306652;33;20116;-91
2023/07/27 02:48:26;;;;;;;0.00;0.00;;;;;;;14.36;59.97;99475.94;4317540;33;20176;-91
2023/07/27 02:50:52;;;;;;;0.00;0.00;;;;;;;14.33;59.96;99475.28;4306168;33;20453;-91
2023/07/27 02:53:17;;;;;;;0.00;0.00;;;;;;;14.36;59.97;99478.56;4296092;33;20108;-91
2023/07/27 02:55:43;;;;;;;0.10;0.10;;;;;;;14.51;59.98;99484.84;4305430;33;20152;-91
2023/07/27 02:58:08;;;;;;;0.00;0.00;;;;;;;14.55;59.98;99488.97;4296009;33;20139;-92
2023/07/27 03:00:33;;;;;;;0.00;0.00;;;;;;;14.49;59.99;99491.06;4295856;33;20163;-91
2023/07/27 03:03:00;;;;;;;0.00;0.00;;;;;;;14.40;59.96;99487.12;4307594;33;23090;-92
2023/07/27 03:05:26;;;;;;;0.15;0.00;;;;;;;14.45;59.97;99485.16;4295981;33;20114;-91
2023/07/27 03:07:52;;;;;;;0.00;0.00;;;;;;;14.34;59.97;99490.06;4307999;33;20100;-90
2023/07/27 03:10:17;;;;;;;0.00;0.00;;;;;;;14.32;59.96;99491.91;4319983;33;20104;-92
2023/07/27 03:12:43;;;;;;;0.00;0.00;;;;;;;14.43;59.97;99495.72;4292666;33;20103;-90
2023/07/27 03:15:08;;;;;;;0.00;0.00;;;;;;;14.28;59.97;99493.84;4294200;33;20114;-91
2023/07/27 03:17:34;;;;;;;0.80;0.62;;;;;;;14.04;59.95;99488.06;4296091;33;20108;-91
2023/07/27 03:19:59;;;;;;;0.00;0.00;;;;;;;14.07;59.95;99493.16;4295656;33;20561;-90
2023/07/27 03:22:25;;;;;;;0.00;0.00;;;;;;;14.14;59.96;99499.75;4305761;33;20100;-91
2023/07/27 03:24:50;;;;;;;0.08;0.08;;;;;;;14.11;59.96;99507.78;4293533;33;20174;-91
2023/07/27 03:27:17;;;;;;;0.10;0.10;;;;;;;14.10;59.96;99508.69;4307925;33;20134;-91
2023/07/27 03:29:42;;;;;;;0.03;0.03;;;;;;;14.21;59.96;99509.94;4308139;33;20489;-91
2023/07/27 03:32:07;;;;;;;0.00;0.00;;;;;;;14.21;59.96;99513.41;4295947;33;20139;-91
2023/07/27 03:34:33;;;;;;;0.10;0.10;;;;;;;14.41;59.98;99520.22;4307692;33;20162;-91
2023/07/27 03:36:58;;;;;;;0.00;0.00;;;;;;;14.37;59.97;99516.91;4307924;33;20088;-91
2023/07/27 03:39:24;;;;;;;0.00;0.00;;;;;;;14.38;59.97;99523.00;4307468;33;20447;-91
2023/07/27 03:41:49;;;;;;;0.00;0.00;;;;;;;14.40;59.97;99523.78;4307752;33;20116;-90
2023/07/27 03:44:14;;;;;;;0.28;0.28;;;;;;;14.36;59.96;99523.09;4295800;33;20120;-91
2023/07/27 03:46:40;;;;;;;0.10;0.10;;;;;;;14.25;59.96;99521.94;4295410;33;21137;-90
2023/07/27 03:49:05;;;;;;;0.00;0.00;;;;;;;14.33;59.96;99531.09;4295094;33;25251;-91
2023/07/27 03:51:31;;;;;;;0.00;0.00;;;;;;;14.35;59.98;99520.56;4288759;33;20183;-91
2023/07/27 03:53:56;;;;;;;0.62;0.13;;;;;;;14.26;59.96;99526.25;4314327;33;20532;-91
2023/07/27 03:56:21;;;;;;;0.00;0.00;;;;;;;14.36;59.97;99537.94;4280789;33;20135;-91
2023/07/27 03:58:47;;;;;;;0.00;0.00;;;;;;;14.31;59.96;99537.34;4280929;33;20109;-91
2023/07/27 04:01:12;;;;;;;0.00;0.00;;;;;;;14.45;59.98;99541.94;4281193;33;20164;-91
2023/07/27 04:03:38;;;;;;;0.00;0.00;;;;;;;14.38;59.97;99542.19;4290674;33;20465;-91
2023/07/27 04:06:03;;;;;;;0.00;0.00;;;;;;;14.61;59.98;99541.03;4280831;33;20938;-91
2023/07/27 04:08:28;;;;;;;0.08;0.08;;;;;;;14.72;59.99;99551.81;4290401;33;20179;-90
2023/07/27 04:10:54;;;;;;;0.20;0.20;;;;;;;14.79;60.00;99559.34;4292738;33;23791;-91
2023/07/27 04:13:19;;;;;;;0.00;0.00;;;;;;;14.92;60.00;99557.78;4281928;33;22786;-91
2023/07/27 04:15:45;;;;;;;0.00;0.00;;;;;;;14.85;59.99;99564.25;4289199;33;20131;-91
2023/07/27 04:18:10;;;;;;;0.00;0.00;;;;;;;14.95;60.00;99568.97;4294132;33;20116;-91
2023/07/27 04:20:35;;;;;;;0.00;0.00;;;;;;;15.01;60.00;99558.16;4289051;33;21171;-90
2023/07/27 04:23:01;;;;;;;0.00;0.00;;;;;;;14.82;59.99;99559.19;4302404;33;20143;-91
2023/07/27 04:25:26;;;;;;;0.00;0.00;;;;;;;14.95;60.00;99557.63;4292974;33;20421;-91
2023/07/27 04:27:52;;;;;;;0.40;0.40;;;;;;;15.00;60.01;99560.84;4291187;33;25692;-91
2023/07/27 04:30:18;;;;;;;0.00;0.00;;;;;;;15.14;60.01;99554.84;4289078;33;24598;-91
2023/07/27 04:32:43;;;;;;;0.00;0.00;;;;;;;15.22;60.02;99548.28;4304970;33;20481;-91
2023/07/27 04:35:08;;;;;;;0.00;0.00;;;;;;;15.21;60.02;99551.00;4281036;33;20126;-91
2023/07/27 04:37:34;;;;;;;0.28;0.28;;;;;;;15.37;60.02;99554.44;4280029;33;21763;-90
2023/07/27 04:39:59;;;;;;;0.00;0.00;;;;;;;15.42;60.03;99555.06;4304591;33;20545;-92
2023/07/27 04:42:25;;;;;;;0.28;0.20;;;;;;;15.47;60.03;99555.66;4280636;33;20175;-91
2023/07/27 04:44:50;;;;;;;0.28;0.28;;;;;;;15.54;60.03;99554.38;4286759;33;20130;-91
2023/07/27 04:47:15;;;;;;;0.00;0.00;;;;;;;15.52;60.03;99558.87;4283823;33;20132;-92
2023/07/27 04:49:41;;;;;;;0.00;0.00;;;;;;;15.51;60.03;99562.41;4313167;33;20154;-91
2023/07/27 04:52:06;;;;;;;0.00;0.00;;;;;;;15.56;60.04;99563.00;4306015;33;20088;-91
2023/07/27 04:54:32;;;;;;;0.00;0.00;;;;;;;15.63;60.04;99561.78;4294355;33;20135;-91
2023/07/27 04:56:57;;;;;;;0.00;0.00;;;;;;;15.72;60.04;99557.78;4294526;33;20393;-91
2023/07/27 04:59:23;;;;;;;0.00;0.00;;;;;;;15.80;60.05;99573.09;4306197;33;24103;-92
2023/07/27 05:01:48;;;;;;;0.00;0.00;;;;;;;15.80;60.05;99581.81;4294398;33;20426;-91
2023/07/27 05:04:13;;;;;;;0.00;0.00;;;;;;;15.88;60.05;99579.63;4306641;33;20103;-91
2023/07/27 05:06:39;;;;;;;0.65;0.52;;;;;;;16.24;60.07;99581.91;4294357;33;20127;-90
2023/07/27 05:09:05;;;;;;;0.00;0.00;;;;;;;16.34;60.08;99576.16;4294781;33;20142;-91
2023/07/27 05:11:30;;;;;;;0.00;0.00;;;;;;;16.34;60.08;99582.25;4294550;33;20118;-91
2023/07/27 05:13:55;;;;;;;0.00;0.00;;;;;;;16.48;60.08;99584.06;4293247;33;26330;-91
2023/07/27 05:16:21;;;;;;;0.00;0.00;;;;;;;16.57;60.09;99588.78;4305591;33;20939;-91
2023/07/27 05:18:49;;;;;;;0.00;0.00;;;;;;;16.48;60.08;99590.16;4318587;33;20493;-91
2023/07/27 05:21:14;;;;;;;0.00;0.00;;;;;;;16.37;60.07;99602.25;4318951;33;20103;-92
2023/07/27 05:23:39;;;;;;;0.00;0.00;;;;;;;16.45;60.08;99600.00;4306275;33;20158;-92
2023/07/27 05:26:05;;;;;;;0.00;0.00;;;;;;;16.39;60.08;99597.75;4306292;33;20123;-91
2023/07/27 05:28:30;;;;;;;0.00;0.00;;;;;;;16.50;60.09;99600.56;4318243;33;20186;-91
2023/07/27 05:30:56;;;;;;;0.03;0.03;;;;;;;16.61;60.08;99605.22;4306163;33;20140;-92
2023/07/27 05:33:21;;;;;;;0.00;0.00;;;;;;;16.60;60.09;99614.88;4284547;33;20190;-90
2023/07/27 05:35:48;;;;;;;0.00;0.00;;;;;;;16.57;60.09;99609.81;4294442;33;20152;-91
2023/07/27 05:38:14;;;;;;;0.00;0.00;;;;;;;16.44;60.08;99624.59;4308848;33;20138;-91
2023/07/27 05:40:39;;;;;;;0.00;0.00;;;;;;;16.60;60.09;99619.28;4286677;33;20398;-90
2023/07/27 05:43:05;;;;;;;0.00;0.00;;;;;;;16.77;60.09;99625.25;4320344;33;20099;-90
2023/07/27 05:45:30;;;;;;;0.00;0.00;;;;;;;16.90;60.10;99628.00;4308192;33;20166;-90
2023/07/27 05:47:56;;;;;;;0.00;0.00;;;;;;;16.98;60.11;99624.91;4308342;33;20104;-92
2023/07/27 05:50:21;;;;;;;0.00;0.00;;;;;;;17.05;60.12;99623.62;4295704;33;28621;-91
2023/07/27 05:52:47;;;;;;;0.00;0.00;;;;;;;16.98;60.11;99628.37;4308293;33;20139;-90
2023/07/27 05:55:12;;;;;;;0.00;0.00;;;;;;;17.07;60.11;99633.09;4308397;33;20159;-90
2023/07/27 05:57:37;;;;;;;0.03;0.03;;;;;;;17.10;60.12;99637.31;4296068;33;20103;-92
2023/07/27 06:00:03;;;;;;;0.00;0.00;;;;;;;17.19;60.12;99632.34;4296311;33;20149;-90
2023/07/27 06:02:29;;;;;;;0.00;0.00;;;;;;;17.32;60.13;99629.81;4307555;33;20125;-91
2023/07/27 06:04:54;;;;;;;0.00;0.00;;;;;;;17.50;60.13;99636.56;4307525;33;31032;-90
2023/07/27 06:07:20;;;;;;;0.37;0.37;;;;;;;17.57;60.14;99634.41;4290663;33;25185;-91
2023/07/27 06:09:45;;;;;;;0.20;0.20;;;;;;;17.71;60.15;99636.19;4325200;33;20096;-89
2023/07/27 06:12:12;;;;;;;0.17;0.17;;;;;;;17.73;60.15;99624.62;4319503;33;23336;-90
2023/07/27 06:14:41;;;;;;;0.00;0.00;;;;;;;17.66;60.15;99630.34;4341926;33;20100;-90
2023/07/27 06:17:06;;;;;;;3.33;0.68;;;;;;;17.73;60.15;99623.78;4305716;33;20800;-90
2023/07/27 06:19:32;;;;;;;0.20;0.20;;;;;;;17.90;60.15;99627.97;4308045;33;20166;-90
2023/07/27 06:21:58;;;;;;;0.13;0.13;;;;;;;18.15;60.16;99621.97;4319893;33;20508;-89
2023/07/27 06:24:23;;;;;;;0.00;0.00;;;;;;;18.21;60.17;99627.66;4307685;33;20155;-90
2023/07/27 06:26:49;;;;;;;0.00;0.00;;;;;;;18.04;60.16;99634.06;4307471;33;20111;-90
2023/07/27 06:29:14;;;;;;;0.00;0.00;;;;;;;18.12;60.17;99628.28;4307842;33;20166;-89
2023/07/27 06:31:39;;;;;;;0.00;0.00;;;;;;;18.28;60.17;99634.25;4333176;33;20147;-90
2023/07/27 06:34:05;;;;;;;0.22;0.13;;;;;;;18.48;60.19;99618.91;4295694;33;20192;-90
2023/07/27 06:36:30;;;;;;;0.00;0.00;;;;;;;18.46;60.19;99623.44;4295544;33;20112;-91
2023/07/27 06:38:56;;;;;;;0.00;0.00;;;;;;;18.63;60.20;99626.66;4295570;33;20087;-90
2023/07/27 06:41:25;;;;;;;0.28;0.28;;;;;;;18.73;60.20;99626.91;4307759;33;20080;-90
2023/07/27 06:43:53;;;;;;;0.00;0.00;;;;;;;18.77;60.20;99622.25;4308013;33;20108;-91
2023/07/27 06:46:19;;;;;;;0.00;0.00;;;;;;;18.92;60.21;99624.69;4307949;33;20167;-90
2023/07/27 06:48:46;;;;;;;0.05;0.05;;;;;;;18.91;60.21;99622.16;4318785;33;20120;-89
2023/07/27 06:51:12;;;;;;;0.00;0.00;;;;;;;19.05;60.22;99618.56;4332984;33;20080;-88
2023/07/27 06:53:37;;;;;;;1.30;0.52;;;;;;;19.25;60.23;99623.31;4319701;33;20541;-90
2023/07/27 06:56:05;;;;;;;0.22;0.22;;;;;;;19.21;60.23;99629.78;4307267;33;20529;-90
2023/07/27 06:58:31;;;;;;;0.00;0.00;;;;;;;19.49;60.24;99624.25;4308064;33;20114;-90
2023/07/27 07:00:56;;;;;;;0.00;0.00;;;;;;;19.76;60.25;99625.91;4307730;33;20116;-90
2023/07/27 07:03:22;;;;;;;0.00;0.00;;;;;;;19.75;60.25;99624.22;4333128;33;20167;-89
2023/07/27 07:05:47;;;;;;;0.00;0.00;;;;;;;19.82;60.26;99631.56;4307550;33;20171;-90
2023/07/27 07:08:13;;;;;;;0.00;0.00;;;;;;;19.65;60.25;99620.56;4307608;33;20146;-90
2023/07/27 07:10:38;;;;;;;0.00;0.00;;;;;;;19.65;60.25;99628.47;4307593;33;20118;-89
2023/07/27 07:13:03;;;;;;;0.00;0.00;;;;;;;19.90;60.26;99618.69;4307629;33;20114;-91
2023/07/27 07:15:29;;;;;;;0.05;0.05;;;;;;;19.95;60.27;99615.69;4295293;33;20147;-90
2023/07/27 07:17:55;;;;;;;0.03;0.03;;;;;;;19.74;60.25;99622.53;4319525;33;20106;-89
2023/07/27 07:20:20;;;;;;;0.00;0.00;;;;;;;19.86;60.27;99618.97;4295358;33;20130;-89
2023/07/27 07:22:45;;;;;;;0.00;0.00;;;;;;;20.05;60.27;99621.97;4307276;33;20134;-91
2023/07/27 07:25:11;;;;;;;0.00;0.00;;;;;;;20.12;60.28;99625.88;4295478;33;20146;-91
2023/07/27 07:27:36;;;;;;;0.00;0.00;;;;;;;20.37;60.29;99621.44;4319633;33;20092;-90
2023/07/27 07:30:05;;;;;;;0.10;0.10;;;;;;;20.28;60.28;99625.56;4294918;33;20127;-91
2023/07/27 07:32:31;;;;;;;0.00;0.00;;;;;;;20.35;60.29;99632.12;4301680;33;218587;-91
2023/07/27 07:34:57;;;;;;;0.00;0.00;;;;;;;20.46;60.29;99621.59;4307483;33;20083;-90
2023/07/27 07:37:22;;;;;;;0.00;0.00;;;;;;;20.41;60.29;99622.91;4295535;33;20110;-91
2023/07/27 07:39:48;;;;;;;0.00;0.00;;;;;;;20.53;60.29;99632.56;4295462;33;20124;-90
2023/07/27 07:42:13;;;;;;;0.00;0.00;;;;;;;20.51;60.29;99634.47;4294714;33;31438;-91
2023/07/27 07:44:39;;;;;;;0.35;0.10;;;;;;;20.63;60.31;99632.72;4307501;33;20112;-91
2023/07/27 07:47:04;;;;;;;0.00;0.00;;;;;;;20.54;60.29;99629.78;4304435;33;28957;-90
2023/07/27 07:49:29;;;;;;;0.00;0.00;;;;;;;20.58;60.30;99635.69;4295062;33;20108;-92
2023/07/27 07:51:56;;;;;;;0.00;0.00;;;;;;;20.59;60.30;99639.22;4295229;33;20115;-91
2023/07/27 07:54:21;;;;;;;0.00;0.00;;;;;;;20.37;60.29;99632.84;4307314;33;20630;-91
2023/07/27 07:56:47;;;;;;;0.00;0.00;;;;;;;20.45;60.29;99627.84;4307322;33;20460;-91
2023/07/27 07:59:14;;;;;;;0.00;0.00;;;;;;;20.45;60.29;99625.22;4294888;33;20163;-91
2023/07/27 08:01:40;;;;;;;0.00;0.00;;;;;;;20.55;60.29;99620.06;4319559;33;20485;-91
2023/07/27 08:04:05;;;;;;;5.47;0.52;;;;;;;20.66;60.31;99625.41;4332892;33;20150;-91
2023/07/27 08:06:31;;;;;;;0.00;0.00;;;;;;;20.75;60.31;99624.69;4295247;33;20103;-92
2023/07/27 08:08:56;;;;;;;0.10;0.10;;;;;;;20.99;60.32;99618.47;4294700;33;23642;-91
2023/07/27 08:11:21;;;;;;;0.13;0.13;;;;;;;21.21;60.33;99618.50;4295051;33;20139;-91
2023/07/27 08:13:47;;;;;;;0.00;0.00;;;;;;;21.35;60.34;99604.22;4307155;33;20173;-91
2023/07/27 08:16:12;;;;;;;0.00;0.00;;;;;;;21.42;60.35;99616.00;4307378;33;20179;-91
2023/07/27 08:18:38;;;;;;;0.20;0.20;;;;;;;21.42;60.35;99610.72;4307170;33;20163;-92
2023/07/27 08:21:04;;;;;;;0.35;0.35;;;;;;;21.51;60.35;99614.44;4294735;33;20123;-90
2023/07/27 08:23:30;;;;;;;0.00;0.00;;;;;;;21.53;60.35;99607.19;4307202;33;20119;-91
2023/07/27 08:25:59;;;;;;;0.15;0.15;;;;;;;21.44;60.35;99608.78;4306964;33;20100;-91
2023/07/27 08:28:24;;;;;;;0.30;0.30;;;;;;;21.52;60.35;99609.00;4306975;33;20100;-92
2023/07/27 08:30:50;;;;;;;0.45;0.45;;;;;;;21.69;60.36;99603.22;4294940;33;20107;-92
2023/07/27 08:33:15;;;;;;;0.05;0.05;;;;;;;21.98;60.38;99600.84;4294852;33;20155;-91
2023/07/27 08:35:41;;;;;;;0.00;0.00;;;;;;;22.11;60.38;99600.75;4307242;33;20132;-91
2023/07/27 08:38:06;;;;;;;0.00;0.00;;;;;;;22.08;60.38;99593.03;4294725;33;20357;-91
2023/07/27 08:40:32;;;;;;;0.00;0.00;;;;;;;22.23;60.38;99594.41;4294947;33;20204;-91
2023/07/27 08:42:57;;;;;;;0.20;0.20;;;;;;;22.31;60.39;99592.00;4294894;33;20174;-91
2023/07/27 08:45:23;;;;;;;0.00;0.00;;;;;;;22.51;60.41;99590.31;4307001;33;20096;-90
2023/07/27 08:47:49;;;;;;;0.17;0.17;;;;;;;22.70;60.41;99594.91;4294548;33;20137;-92
2023/07/27 08:50:14;;;;;;;0.25;0.20;;;;;;;23.15;60.44;99590.16;4294856;33;20351;-91
2023/07/27 08:52:40;;;;;;;0.00;0.00;;;;;;;23.21;60.44;99588.81;4318814;33;20224;-92
2023/07/27 08:55:05;;;;;;;0.00;0.00;;;;;;;23.19;60.45;99580.13;4306960;33;20135;-91
2023/07/27 08:57:31;;;;;;;0.00;0.00;;;;;;;23.12;60.44;99584.28;4304310;33;20110;-92
2023/07/27 08:59:57;;;;;;;0.25;0.25;;;;;;;23.31;60.45;99576.41;4288473;33;20116;-92
2023/07/27 09:02:22;;;;;;;0.10;0.10;;;;;;;23.37;60.45;99580.31;4294716;33;20179;-92
2023/07/27 09:04:47;;;;;;;0.05;0.05;;;;;;;23.48;60.45;99573.09;4294558;33;20119;-92
2023/07/27 09:07:13;;;;;;;0.13;0.13;;;;;;;23.36;60.45;99582.13;4294314;33;20139;-92
2023/07/27 09:09:39;;;;;;;0.30;0.30;;;;;;;23.38;60.45;99574.03;4294690;33;20108;-92
2023/07/27 09:12:06;;;;;;;1.45;0.57;;;;;;;23.55;60.46;99573.41;4308115;33;20096;-92
2023/07/27 09:14:36;;;;;;;0.03;0.03;;;;;;;23.53;60.46;99578.00;4320850;33;20092;-90
2023/07/27 09:17:01;;;;;;;0.00;0.00;;;;;;;23.68;60.47;99575.84;4296070;33;20096;-92
2023/07/27 09:19:26;;;;;;;0.08;0.08;;;;;;;23.85;60.48;99583.13;4296250;33;20519;-91
2023/07/27 09:21:52;;;;;;;0.70;0.15;;;;;;;23.76;60.47;99579.50;4308273;33;20555;-91
2023/07/27 09:24:18;;;;;;;0.32;0.32;;;;;;;23.96;60.48;99582.19;4296288;33;20095;-91
2023/07/27 09:26:48;;;;;;;0.08;0.08;;;;;;;23.99;60.48;99577.44;4308275;33;20125;-91
2023/07/27 09:29:14;;;;;;;0.00;0.00;;;;;;;24.14;60.49;99576.03;4296260;33;20232;-91
2023/07/27 09:31:47;;;;;;;0.10;0.10;;;;;;;24.23;60.49;99571.69;4308312;33;20154;-91
2023/07/27 09:34:12;;;;;;;0.00;0.00;;;;;;;24.31;60.50;99577.19;4320379;33;20155;-91
2023/07/27 09:36:38;;;;;;;0.00;0.00;;;;;;;24.65;60.51;99566.09;4320518;33;20144;-91
2023/07/27 09:39:03;;;;;;;0.00;0.00;;;;;;;24.82;60.52;99572.47;4320124;33;20200;-91
2023/07/27 09:41:31;;;;;;;0.00;0.00;;;;;;;24.92;60.54;99570.66;4308268;33;20154;-91
2023/07/27 09:43:57;;;;;;;0.00;0.00;;;;;;;24.58;60.51;99563.12;4308257;33;20681;-90
2023/07/27 09:46:23;;;;;;;0.00;0.00;;;;;;;24.65;60.52;99572.25;4296448;33;20092;-92
2023/07/27 09:48:48;;;;;;;0.00;0.00;;;;;;;24.76;60.53;99572.06;4296042;33;20105;-92
2023/07/27 09:51:15;;;;;;;0.00;0.00;;;;;;;24.71;60.52;99570.84;4307937;33;20433;-92
2023/07/27 09:53:42;;;;;;;0.00;0.00;;;;;;;24.67;60.51;99564.97;4320377;33;20175;-92
2023/07/27 09:56:07;;;;;;;0.10;0.10;;;;;;;24.89;60.53;99568.28;4320481;33;20151;-93
2023/07/27 09:58:33;;;;;;;0.00;0.00;;;;;;;24.71;60.52;99557.53;4319978;33;20159;-92
2023/07/27 10:00:59;;;;;;;0.00;0.00;;;;;;;24.92;60.54;99560.00;4296100;33;20116;-92
2023/07/27 10:03:24;;;;;;;0.20;0.20;;;;;;;25.44;60.56;99547.88;4320272;33;20092;-91
2023/07/27 10:05:50;;;;;;;0.00;0.00;;;;;;;25.61;60.56;99539.09;4320346;33;20160;-92
2023/07/27 10:08:16;;;;;;;0.00;0.00;;;;;;;25.27;60.55;99536.19;4307941;33;20119;-91
2023/07/27 10:10:42;;;;;;;0.10;0.10;;;;;;;25.52;60.56;99537.28;4296067;33;20478;-92
2023/07/27 10:13:13;;;;;;;0.00;0.00;;;;;;;25.50;60.56;99531.28;4319969;33;20448;-93
2023/07/27 10:15:42;;;;;;;0.10;0.10;;;;;;;25.51;60.56;99543.63;4308399;33;20485;-91
2023/07/27 10:18:08;;;;;;;0.00;0.00;;;;;;;25.50;60.56;99533.09;4308247;33;20215;-93
2023/07/27 10:20:34;;;;;;;0.08;0.08;;;;;;;25.78;60.58;99526.78;4328973;33;20389;-91
2023/07/27 10:23:09;;;;;;;0.30;0.30;;;;;;;25.89;60.58;99537.22;4319996;33;20406;-92
2023/07/27 10:26:10;;;;;;;0.00;0.00;;;;;;;25.86;60.59;99536.69;4320055;33;20460;-92
2023/07/27 10:28:47;;;;;;;0.10;0.10;;;;;;;25.45;60.55;99536.22;4290103;33;20414;-91
2023/07/27 10:31:26;;;;;;;0.03;0.03;;;;;;;25.35;60.56;99530.97;4305324;33;20112;-92
2023/07/27 10:33:55;;;;;;;0.00;0.00;;;;;;;25.14;60.55;99546.34;4296011;33;20171;-92
2023/07/27 10:36:21;;;;;;;0.03;0.03;;;;;;;25.11;60.55;99536.00;4319933;33;20137;-93
2023/07/27 10:38:53;;;;;;;0.00;0.00;;;;;;;25.20;60.55;99528.94;4296035;33;20182;-93
2023/07/27 10:41:23;;;;;;;4.07;1.15;;;;;;;25.41;60.56;99529.53;4307771;33;20111;-92
2023/07/27 10:44:07;;;;;;;;;;;;;;;25.51;60.56;99518.78;4296057;33;20096;-92
2023/07/27 10:46:35;;;;;;;0.10;0.10;;;;;;;25.45;60.56;99520.25;4325474;33;19963;-92
2023/07/27 10:49:10;;;;;;;0.00;0.00;;;;;;;25.67;60.57;99509.19;4307876;33;20237;-91
2023/07/27 10:51:36;;;;;;;0.00;0.00;;;;;;;25.65;60.57;99508.47;4320176;33;20130;-92
2023/07/27 10:54:01;;;;;;;0.28;0.28;;;;;;;25.69;60.58;99499.19;4307814;33;20136;-93
2023/07/27 10:56:27;;;;;;;0.00;0.00;;;;;;;25.76;60.58;99510.09;4295798;33;20148;-93
2023/07/27 10:58:55;;;;;;;0.10;0.10;;;;;;;25.66;60.58;99503.97;4295655;33;20115;-93
2023/07/27 11:01:20;;;;;;;0.00;0.00;;;;;;;25.79;60.58;99501.81;4296031;33;20111;-93
2023/07/27 11:03:46;;;;;;;0.20;0.20;;;;;;;25.72;60.58;99513.22;4307879;33;20418;-92
2023/07/27 11:06:11;;;;;;;0.00;0.00;;;;;;;25.74;60.58;99506.75;4307726;33;20108;-92
2023/07/27 11:08:37;;;;;;;0.00;0.00;;;;;;;25.65;60.58;99496.97;4307523;33;20596;-92
2023/07/27 11:11:21;;;;;;;0.00;0.00;;;;;;;26.00;60.59;99504.97;4295683;33;20144;-92
2023/07/27 11:13:46;;;;;;;0.00;0.00;;;;;;;26.14;60.60;99508.09;4293274;33;20190;-93
2023/07/27 11:16:15;;;;;;;0.17;0.13;;;;;;;26.29;60.61;99496.75;4305201;33;20147;-92
2023/07/27 11:18:43;;;;;;;0.00;0.00;;;;;;;26.33;60.61;99502.59;4317603;33;20158;-93
2023/07/27 11:21:09;;;;;;;0.00;0.00;;;;;;;26.54;60.62;99489.75;4307720;33;20107;-93
2023/07/27 11:23:47;;;;;;;0.00;0.00;;;;;;;26.50;60.62;99504.44;4295478;33;20460;-93
2023/07/27 11:26:13;;;;;;;0.00;0.00;;;;;;;26.31;60.61;99496.59;4295617;33;20155;-93
2023/07/27 11:28:41;;;;;;;0.00;0.00;;;;;;;26.46;60.61;99495.03;4295501;33;20111;-92
2023/07/27 11:31:07;;;;;;;0.20;0.10;;;;;;;26.28;60.61;99484.38;4295501;33;20670;-92